sensor_id;sensor_type;location;lat;lon;timestamp;P1;durP1;ratioP1;P2;durP2;ratioP2
11414;SDS011;5763;42.714;23.244;2022-12-07T00:00:16;20.20;;;12.90;;
11414;SDS011;5763;42.714;23.244;2022-12-07T00:02:43;17.30;;;12.93;;
11414;SDS011;5763;42.714;23.244;2022-12-07T00:05:10;17.17;;;11.48;;
11414;SDS011;5763;42.714;23.244;2022-12-07T00:07:37;21.73;;;13.27;;
11414;SDS011;5763;42.714;23.244;2022-12-07T00:10:06;21.63;;;13.32;;
11414;SDS011;5763;42.714;23.244;2022-12-07T00:12:33;20.55;;;13.20;;
11414;SDS011;5763;42.714;23.244;2022-12-07T00:15:00;21.10;;;14.88;;
11414;SDS011;5763;42.714;23.244;2022-12-07T00:17:26;21.20;;;14.80;;
11414;SDS011;5763;42.714;23.244;2022-12-07T00:19:53;22.58;;;15.90;;
11414;SDS011;5763;42.714;23.244;2022-12-07T00:22:20;22.45;;;14.40;;
11414;SDS011;5763;42.714;23.244;2022-12-07T00:24:46;21.58;;;15.38;;
11414;SDS011;5763;42.714;23.244;2022-12-07T00:27:15;22.88;;;14.63;;
11414;SDS011;5763;42.714;23.244;2022-12-07T00:29:41;20.25;;;14.65;;
11414;SDS011;5763;42.714;23.244;2022-12-07T00:32:08;23.23;;;14.85;;
11414;SDS011;5763;42.714;23.244;2022-12-07T00:34:35;22.52;;;14.63;;
11414;SDS011;5763;42.714;23.244;2022-12-07T00:37:02;23.13;;;14.25;;
11414;SDS011;5763;42.714;23.244;2022-12-07T00:39:28;21.67;;;13.73;;
11414;SDS011;5763;42.714;23.244;2022-12-07T00:41:55;21.23;;;13.80;;
11414;SDS011;5763;42.714;23.244;2022-12-07T00:44:23;18.98;;;13.43;;
11414;SDS011;5763;42.714;23.244;2022-12-07T00:46:50;20.25;;;13.50;;
11414;SDS011;5763;42.714;23.244;2022-12-07T00:49:17;21.15;;;14.75;;
11414;SDS011;5763;42.714;23.244;2022-12-07T00:51:44;21.02;;;14.13;;
11414;SDS011;5763;42.714;23.244;2022-12-07T00:54:11;22.35;;;14.73;;
11414;SDS011;5763;42.714;23.244;2022-12-07T00:56:37;23.63;;;14.65;;
11414;SDS011;5763;42.714;23.244;2022-12-07T00:59:04;23.38;;;14.63;;
11414;SDS011;5763;42.714;23.244;2022-12-07T01:01:33;22.52;;;14.90;;
11414;SDS011;5763;42.714;23.244;2022-12-07T01:04:01;24.27;;;15.07;;
11414;SDS011;5763;42.714;23.244;2022-12-07T01:06:29;22.60;;;15.52;;
11414;SDS011;5763;42.714;23.244;2022-12-07T01:08:57;23.40;;;15.43;;
11414;SDS011;5763;42.714;23.244;2022-12-07T01:11:25;22.77;;;15.52;;
11414;SDS011;5763;42.714;23.244;2022-12-07T01:13:54;22.90;;;15.23;;
11414;SDS011;5763;42.714;23.244;2022-12-07T01:16:23;21.20;;;14.75;;
11414;SDS011;5763;42.714;23.244;2022-12-07T01:18:54;22.15;;;15.50;;
11414;SDS011;5763;42.714;23.244;2022-12-07T01:21:22;26.98;;;16.33;;
11414;SDS011;5763;42.714;23.244;2022-12-07T01:23:50;23.10;;;15.23;;
11414;SDS011;5763;42.714;23.244;2022-12-07T01:26:18;22.70;;;14.65;;
11414;SDS011;5763;42.714;23.244;2022-12-07T01:28:46;19.73;;;13.43;;
11414;SDS011;5763;42.714;23.244;2022-12-07T01:31:14;20.98;;;14.00;;
11414;SDS011;5763;42.714;23.244;2022-12-07T01:33:43;20.88;;;15.10;;
11414;SDS011;5763;42.714;23.244;2022-12-07T01:36:14;21.55;;;14.20;;
11414;SDS011;5763;42.714;23.244;2022-12-07T01:38:43;20.02;;;13.40;;
11414;SDS011;5763;42.714;23.244;2022-12-07T01:41:10;21.52;;;14.68;;
11414;SDS011;5763;42.714;23.244;2022-12-07T01:44:07;22.30;;;14.38;;
11414;SDS011;5763;42.714;23.244;2022-12-07T01:46:46;20.67;;;13.82;;
11414;SDS011;5763;42.714;23.244;2022-12-07T01:49:16;22.13;;;14.88;;
11414;SDS011;5763;42.714;23.244;2022-12-07T01:51:49;25.08;;;15.68;;
11414;SDS011;5763;42.714;23.244;2022-12-07T01:54:21;26.00;;;15.70;;
11414;SDS011;5763;42.714;23.244;2022-12-07T01:56:49;25.33;;;16.45;;
11414;SDS011;5763;42.714;23.244;2022-12-07T01:59:19;23.92;;;16.17;;
11414;SDS011;5763;42.714;23.244;2022-12-07T02:01:49;27.15;;;17.25;;
11414;SDS011;5763;42.714;23.244;2022-12-07T02:04:16;27.15;;;17.23;;
11414;SDS011;5763;42.714;23.244;2022-12-07T02:06:44;23.98;;;16.98;;
11414;SDS011;5763;42.714;23.244;2022-12-07T02:09:14;27.70;;;17.75;;
11414;SDS011;5763;42.714;23.244;2022-12-07T02:11:41;29.63;;;17.00;;
11414;SDS011;5763;42.714;23.244;2022-12-07T02:14:08;26.88;;;16.75;;
11414;SDS011;5763;42.714;23.244;2022-12-07T02:16:37;27.50;;;17.48;;
11414;SDS011;5763;42.714;23.244;2022-12-07T02:19:27;24.95;;;16.80;;
11414;SDS011;5763;42.714;23.244;2022-12-07T02:22:16;23.85;;;16.45;;
11414;SDS011;5763;42.714;23.244;2022-12-07T02:24:57;22.90;;;14.55;;
11414;SDS011;5763;42.714;23.244;2022-12-07T02:27:37;21.65;;;14.48;;
11414;SDS011;5763;42.714;23.244;2022-12-07T02:30:12;19.52;;;13.60;;
11414;SDS011;5763;42.714;23.244;2022-12-07T02:32:42;22.95;;;14.15;;
11414;SDS011;5763;42.714;23.244;2022-12-07T02:35:16;20.38;;;14.07;;
11414;SDS011;5763;42.714;23.244;2022-12-07T02:37:48;27.48;;;14.85;;
11414;SDS011;5763;42.714;23.244;2022-12-07T02:40:25;19.33;;;12.73;;
11414;SDS011;5763;42.714;23.244;2022-12-07T02:42:59;19.73;;;12.95;;
11414;SDS011;5763;42.714;23.244;2022-12-07T02:45:31;19.80;;;13.07;;
11414;SDS011;5763;42.714;23.244;2022-12-07T02:48:01;20.33;;;12.82;;
11414;SDS011;5763;42.714;23.244;2022-12-07T02:50:30;18.45;;;12.20;;
11414;SDS011;5763;42.714;23.244;2022-12-07T02:52:56;18.15;;;11.35;;
11414;SDS011;5763;42.714;23.244;2022-12-07T02:55:25;20.05;;;12.25;;
11414;SDS011;5763;42.714;23.244;2022-12-07T03:00:49;20.02;;;11.80;;
11414;SDS011;5763;42.714;23.244;2022-12-07T03:03:21;19.80;;;12.57;;
11414;SDS011;5763;42.714;23.244;2022-12-07T03:05:52;17.30;;;11.68;;
11414;SDS011;5763;42.714;23.244;2022-12-07T03:08:31;18.13;;;12.05;;
11414;SDS011;5763;42.714;23.244;2022-12-07T03:11:05;19.85;;;12.60;;
11414;SDS011;5763;42.714;23.244;2022-12-07T03:13:37;20.05;;;12.57;;
11414;SDS011;5763;42.714;23.244;2022-12-07T03:16:10;19.88;;;12.80;;
11414;SDS011;5763;42.714;23.244;2022-12-07T03:18:43;19.52;;;12.13;;
11414;SDS011;5763;42.714;23.244;2022-12-07T03:21:14;18.85;;;11.68;;
11414;SDS011;5763;42.714;23.244;2022-12-07T03:23:43;20.10;;;12.30;;
11414;SDS011;5763;42.714;23.244;2022-12-07T03:26:14;23.25;;;13.57;;
11414;SDS011;5763;42.714;23.244;2022-12-07T03:28:46;21.20;;;13.30;;
11414;SDS011;5763;42.714;23.244;2022-12-07T03:31:19;22.30;;;13.45;;
11414;SDS011;5763;42.714;23.244;2022-12-07T03:33:49;20.92;;;14.00;;
11414;SDS011;5763;42.714;23.244;2022-12-07T03:36:26;23.98;;;13.27;;
11414;SDS011;5763;42.714;23.244;2022-12-07T03:39:00;18.45;;;13.20;;
11414;SDS011;5763;42.714;23.244;2022-12-07T03:41:35;20.05;;;13.13;;
11414;SDS011;5763;42.714;23.244;2022-12-07T03:44:04;19.42;;;13.15;;
11414;SDS011;5763;42.714;23.244;2022-12-07T03:46:35;19.77;;;13.93;;
11414;SDS011;5763;42.714;23.244;2022-12-07T03:49:11;20.30;;;13.45;;
11414;SDS011;5763;42.714;23.244;2022-12-07T03:51:45;19.88;;;13.10;;
11414;SDS011;5763;42.714;23.244;2022-12-07T03:54:19;21.38;;;13.40;;
11414;SDS011;5763;42.714;23.244;2022-12-07T03:56:49;20.15;;;13.73;;
11414;SDS011;5763;42.714;23.244;2022-12-07T03:59:17;19.05;;;13.23;;
11414;SDS011;5763;42.714;23.244;2022-12-07T04:01:51;21.17;;;13.48;;
11414;SDS011;5763;42.714;23.244;2022-12-07T04:04:19;20.25;;;12.52;;
11414;SDS011;5763;42.714;23.244;2022-12-07T04:06:45;20.48;;;13.23;;
11414;SDS011;5763;42.714;23.244;2022-12-07T04:09:12;19.45;;;12.57;;
11414;SDS011;5763;42.714;23.244;2022-12-07T04:11:40;18.40;;;12.90;;
11414;SDS011;5763;42.714;23.244;2022-12-07T04:14:07;19.13;;;12.70;;
11414;SDS011;5763;42.714;23.244;2022-12-07T04:16:47;21.63;;;14.15;;
11414;SDS011;5763;42.714;23.244;2022-12-07T04:19:16;19.60;;;13.10;;
11414;SDS011;5763;42.714;23.244;2022-12-07T04:21:43;21.95;;;14.02;;
11414;SDS011;5763;42.714;23.244;2022-12-07T04:24:11;23.45;;;14.40;;
11414;SDS011;5763;42.714;23.244;2022-12-07T04:26:39;21.88;;;14.00;;
11414;SDS011;5763;42.714;23.244;2022-12-07T04:29:06;20.95;;;14.02;;
11414;SDS011;5763;42.714;23.244;2022-12-07T04:31:33;21.77;;;13.68;;
11414;SDS011;5763;42.714;23.244;2022-12-07T04:34:01;24.02;;;15.90;;
11414;SDS011;5763;42.714;23.244;2022-12-07T04:36:28;23.25;;;15.40;;
11414;SDS011;5763;42.714;23.244;2022-12-07T04:38:55;21.85;;;14.38;;
11414;SDS011;5763;42.714;23.244;2022-12-07T04:41:23;21.50;;;15.32;;
11414;SDS011;5763;42.714;23.244;2022-12-07T04:43:52;25.10;;;15.20;;
11414;SDS011;5763;42.714;23.244;2022-12-07T04:46:20;22.25;;;14.48;;
11414;SDS011;5763;42.714;23.244;2022-12-07T04:48:47;22.10;;;15.32;;
11414;SDS011;5763;42.714;23.244;2022-12-07T04:51:15;22.48;;;15.95;;
11414;SDS011;5763;42.714;23.244;2022-12-07T04:53:45;24.27;;;15.15;;
11414;SDS011;5763;42.714;23.244;2022-12-07T04:56:12;23.48;;;15.00;;
11414;SDS011;5763;42.714;23.244;2022-12-07T04:58:39;22.95;;;15.18;;
11414;SDS011;5763;42.714;23.244;2022-12-07T05:01:06;23.33;;;15.65;;
11414;SDS011;5763;42.714;23.244;2022-12-07T05:03:33;21.98;;;14.82;;
11414;SDS011;5763;42.714;23.244;2022-12-07T05:06:00;23.77;;;15.77;;
11414;SDS011;5763;42.714;23.244;2022-12-07T05:08:28;23.20;;;15.73;;
11414;SDS011;5763;42.714;23.244;2022-12-07T05:10:55;22.85;;;15.45;;
11414;SDS011;5763;42.714;23.244;2022-12-07T05:13:22;21.35;;;14.70;;
11414;SDS011;5763;42.714;23.244;2022-12-07T05:15:49;25.33;;;14.85;;
11414;SDS011;5763;42.714;23.244;2022-12-07T05:18:16;24.02;;;15.02;;
11414;SDS011;5763;42.714;23.244;2022-12-07T05:20:44;21.95;;;15.02;;
11414;SDS011;5763;42.714;23.244;2022-12-07T05:23:11;28.80;;;17.42;;
11414;SDS011;5763;42.714;23.244;2022-12-07T05:25:39;30.05;;;17.63;;
11414;SDS011;5763;42.714;23.244;2022-12-07T05:28:06;29.48;;;17.58;;
11414;SDS011;5763;42.714;23.244;2022-12-07T05:30:33;25.52;;;16.15;;
11414;SDS011;5763;42.714;23.244;2022-12-07T05:32:59;22.52;;;14.02;;
11414;SDS011;5763;42.714;23.244;2022-12-07T05:35:27;25.58;;;14.25;;
11414;SDS011;5763;42.714;23.244;2022-12-07T05:37:54;19.35;;;13.82;;
11414;SDS011;5763;42.714;23.244;2022-12-07T05:40:22;19.85;;;13.07;;
11414;SDS011;5763;42.714;23.244;2022-12-07T05:42:50;22.55;;;13.85;;
11414;SDS011;5763;42.714;23.244;2022-12-07T05:45:17;21.50;;;13.75;;
11414;SDS011;5763;42.714;23.244;2022-12-07T05:47:43;19.63;;;13.30;;
11414;SDS011;5763;42.714;23.244;2022-12-07T05:50:10;20.13;;;13.05;;
11414;SDS011;5763;42.714;23.244;2022-12-07T05:52:37;21.55;;;13.68;;
11414;SDS011;5763;42.714;23.244;2022-12-07T05:55:04;18.63;;;12.90;;
11414;SDS011;5763;42.714;23.244;2022-12-07T05:57:32;20.80;;;13.43;;
11414;SDS011;5763;42.714;23.244;2022-12-07T06:00:00;21.08;;;13.85;;
11414;SDS011;5763;42.714;23.244;2022-12-07T06:02:26;22.65;;;14.95;;
11414;SDS011;5763;42.714;23.244;2022-12-07T06:04:52;23.65;;;14.45;;
11414;SDS011;5763;42.714;23.244;2022-12-07T06:07:19;19.33;;;14.25;;
11414;SDS011;5763;42.714;23.244;2022-12-07T06:09:46;24.33;;;15.38;;
11414;SDS011;5763;42.714;23.244;2022-12-07T06:12:13;26.10;;;16.20;;
11414;SDS011;5763;42.714;23.244;2022-12-07T06:14:54;24.58;;;15.35;;
11414;SDS011;5763;42.714;23.244;2022-12-07T06:17:22;25.80;;;16.00;;
11414;SDS011;5763;42.714;23.244;2022-12-07T06:19:49;27.55;;;16.58;;
11414;SDS011;5763;42.714;23.244;2022-12-07T06:22:15;23.83;;;16.58;;
11414;SDS011;5763;42.714;23.244;2022-12-07T06:24:43;24.63;;;16.17;;
11414;SDS011;5763;42.714;23.244;2022-12-07T06:27:10;25.25;;;16.35;;
11414;SDS011;5763;42.714;23.244;2022-12-07T06:29:37;23.33;;;15.85;;
11414;SDS011;5763;42.714;23.244;2022-12-07T06:32:04;24.65;;;16.17;;
11414;SDS011;5763;42.714;23.244;2022-12-07T06:34:32;25.77;;;17.30;;
11414;SDS011;5763;42.714;23.244;2022-12-07T06:36:59;28.20;;;15.65;;
11414;SDS011;5763;42.714;23.244;2022-12-07T06:39:26;23.17;;;15.52;;
11414;SDS011;5763;42.714;23.244;2022-12-07T06:41:54;27.35;;;16.63;;
11414;SDS011;5763;42.714;23.244;2022-12-07T06:44:21;21.67;;;15.55;;
11414;SDS011;5763;42.714;23.244;2022-12-07T06:46:49;29.15;;;17.75;;
11414;SDS011;5763;42.714;23.244;2022-12-07T06:49:16;28.05;;;16.60;;
11414;SDS011;5763;42.714;23.244;2022-12-07T06:51:44;24.90;;;17.38;;
11414;SDS011;5763;42.714;23.244;2022-12-07T06:54:12;28.20;;;17.92;;
11414;SDS011;5763;42.714;23.244;2022-12-07T06:56:40;32.95;;;19.10;;
11414;SDS011;5763;42.714;23.244;2022-12-07T06:59:07;27.48;;;17.90;;
11414;SDS011;5763;42.714;23.244;2022-12-07T07:01:34;25.77;;;17.98;;
11414;SDS011;5763;42.714;23.244;2022-12-07T07:04:02;25.88;;;17.55;;
11414;SDS011;5763;42.714;23.244;2022-12-07T07:06:29;29.95;;;17.77;;
11414;SDS011;5763;42.714;23.244;2022-12-07T07:08:57;26.13;;;17.67;;
11414;SDS011;5763;42.714;23.244;2022-12-07T07:11:24;25.83;;;16.77;;
11414;SDS011;5763;42.714;23.244;2022-12-07T07:13:50;25.80;;;17.30;;
11414;SDS011;5763;42.714;23.244;2022-12-07T07:16:18;24.05;;;16.90;;
11414;SDS011;5763;42.714;23.244;2022-12-07T07:18:44;26.23;;;18.00;;
11414;SDS011;5763;42.714;23.244;2022-12-07T07:21:11;26.20;;;17.00;;
11414;SDS011;5763;42.714;23.244;2022-12-07T07:23:38;25.73;;;17.85;;
11414;SDS011;5763;42.714;23.244;2022-12-07T07:26:06;27.02;;;18.45;;
11414;SDS011;5763;42.714;23.244;2022-12-07T07:28:33;33.08;;;20.30;;
11414;SDS011;5763;42.714;23.244;2022-12-07T07:31:00;31.30;;;20.40;;
11414;SDS011;5763;42.714;23.244;2022-12-07T07:33:26;31.15;;;21.58;;
11414;SDS011;5763;42.714;23.244;2022-12-07T07:35:53;37.78;;;24.35;;
11414;SDS011;5763;42.714;23.244;2022-12-07T07:38:20;34.83;;;23.75;;
11414;SDS011;5763;42.714;23.244;2022-12-07T07:40:46;34.85;;;21.77;;
11414;SDS011;5763;42.714;23.244;2022-12-07T07:43:14;26.02;;;18.08;;
11414;SDS011;5763;42.714;23.244;2022-12-07T07:45:41;32.13;;;19.80;;
11414;SDS011;5763;42.714;23.244;2022-12-07T07:48:08;24.65;;;17.27;;
11414;SDS011;5763;42.714;23.244;2022-12-07T07:50:35;24.85;;;16.05;;
11414;SDS011;5763;42.714;23.244;2022-12-07T07:53:01;29.20;;;18.02;;
11414;SDS011;5763;42.714;23.244;2022-12-07T07:55:28;27.50;;;16.63;;
11414;SDS011;5763;42.714;23.244;2022-12-07T07:57:55;21.75;;;15.77;;
11414;SDS011;5763;42.714;23.244;2022-12-07T08:00:24;25.17;;;16.15;;
11414;SDS011;5763;42.714;23.244;2022-12-07T08:02:51;25.25;;;15.73;;
11414;SDS011;5763;42.714;23.244;2022-12-07T08:05:18;24.65;;;16.02;;
11414;SDS011;5763;42.714;23.244;2022-12-07T08:07:44;23.40;;;14.73;;
11414;SDS011;5763;42.714;23.244;2022-12-07T08:10:12;26.40;;;15.93;;
11414;SDS011;5763;42.714;23.244;2022-12-07T08:12:39;23.35;;;16.15;;
11414;SDS011;5763;42.714;23.244;2022-12-07T08:15:21;24.65;;;16.88;;
11414;SDS011;5763;42.714;23.244;2022-12-07T08:17:49;24.73;;;15.70;;
11414;SDS011;5763;42.714;23.244;2022-12-07T08:20:16;26.67;;;17.42;;
11414;SDS011;5763;42.714;23.244;2022-12-07T08:22:43;27.05;;;17.25;;
11414;SDS011;5763;42.714;23.244;2022-12-07T08:25:09;25.92;;;17.35;;
11414;SDS011;5763;42.714;23.244;2022-12-07T08:27:36;27.00;;;17.27;;
11414;SDS011;5763;42.714;23.244;2022-12-07T08:30:03;25.52;;;17.42;;
11414;SDS011;5763;42.714;23.244;2022-12-07T08:32:31;28.63;;;17.98;;
11414;SDS011;5763;42.714;23.244;2022-12-07T08:34:59;27.48;;;18.05;;
11414;SDS011;5763;42.714;23.244;2022-12-07T08:37:26;27.42;;;17.50;;
11414;SDS011;5763;42.714;23.244;2022-12-07T08:39:52;27.98;;;17.60;;
11414;SDS011;5763;42.714;23.244;2022-12-07T08:42:19;27.55;;;17.75;;
11414;SDS011;5763;42.714;23.244;2022-12-07T08:44:48;27.70;;;18.17;;
11414;SDS011;5763;42.714;23.244;2022-12-07T08:47:14;32.30;;;19.80;;
11414;SDS011;5763;42.714;23.244;2022-12-07T08:49:42;28.77;;;18.67;;
11414;SDS011;5763;42.714;23.244;2022-12-07T08:52:14;31.45;;;19.73;;
11414;SDS011;5763;42.714;23.244;2022-12-07T08:54:41;30.40;;;19.20;;
11414;SDS011;5763;42.714;23.244;2022-12-07T08:57:08;30.50;;;19.55;;
11414;SDS011;5763;42.714;23.244;2022-12-07T08:59:36;30.33;;;20.08;;
11414;SDS011;5763;42.714;23.244;2022-12-07T09:02:03;33.33;;;20.50;;
11414;SDS011;5763;42.714;23.244;2022-12-07T09:04:30;29.15;;;20.08;;
11414;SDS011;5763;42.714;23.244;2022-12-07T09:06:57;28.35;;;19.77;;
11414;SDS011;5763;42.714;23.244;2022-12-07T09:09:26;29.55;;;20.92;;
11414;SDS011;5763;42.714;23.244;2022-12-07T09:11:53;28.38;;;19.60;;
11414;SDS011;5763;42.714;23.244;2022-12-07T09:14:20;29.80;;;20.75;;
11414;SDS011;5763;42.714;23.244;2022-12-07T09:16:47;30.65;;;21.38;;
11414;SDS011;5763;42.714;23.244;2022-12-07T09:19:13;31.15;;;22.08;;
11414;SDS011;5763;42.714;23.244;2022-12-07T09:21:40;32.95;;;21.35;;
11414;SDS011;5763;42.714;23.244;2022-12-07T09:24:07;29.92;;;20.55;;
11414;SDS011;5763;42.714;23.244;2022-12-07T09:26:35;33.70;;;21.45;;
11414;SDS011;5763;42.714;23.244;2022-12-07T09:29:04;31.63;;;21.42;;
11414;SDS011;5763;42.714;23.244;2022-12-07T09:31:31;30.33;;;21.20;;
11414;SDS011;5763;42.714;23.244;2022-12-07T09:33:58;27.98;;;21.88;;
11414;SDS011;5763;42.714;23.244;2022-12-07T09:36:26;34.80;;;22.95;;
11414;SDS011;5763;42.714;23.244;2022-12-07T09:38:54;35.10;;;24.63;;
11414;SDS011;5763;42.714;23.244;2022-12-07T09:41:22;32.88;;;23.48;;
11414;SDS011;5763;42.714;23.244;2022-12-07T09:43:53;34.38;;;24.50;;
11414;SDS011;5763;42.714;23.244;2022-12-07T09:46:26;35.33;;;25.02;;
11414;SDS011;5763;42.714;23.244;2022-12-07T09:48:54;34.17;;;26.00;;
11414;SDS011;5763;42.714;23.244;2022-12-07T09:51:21;38.03;;;26.70;;
11414;SDS011;5763;42.714;23.244;2022-12-07T09:53:49;32.05;;;24.17;;
11414;SDS011;5763;42.714;23.244;2022-12-07T09:56:17;35.75;;;25.50;;
11414;SDS011;5763;42.714;23.244;2022-12-07T09:58:45;35.70;;;25.52;;
11414;SDS011;5763;42.714;23.244;2022-12-07T10:01:16;35.88;;;24.67;;
11414;SDS011;5763;42.714;23.244;2022-12-07T10:03:45;32.75;;;22.00;;
11414;SDS011;5763;42.714;23.244;2022-12-07T10:06:16;30.00;;;21.77;;
11414;SDS011;5763;42.714;23.244;2022-12-07T10:08:43;33.75;;;22.20;;
11414;SDS011;5763;42.714;23.244;2022-12-07T10:11:10;29.08;;;21.20;;
11414;SDS011;5763;42.714;23.244;2022-12-07T10:13:37;31.63;;;20.92;;
11414;SDS011;5763;42.714;23.244;2022-12-07T10:16:06;34.95;;;24.45;;
11414;SDS011;5763;42.714;23.244;2022-12-07T10:18:54;32.78;;;23.30;;
11414;SDS011;5763;42.714;23.244;2022-12-07T10:21:22;36.90;;;23.33;;
11414;SDS011;5763;42.714;23.244;2022-12-07T10:24:00;30.73;;;22.30;;
11414;SDS011;5763;42.714;23.244;2022-12-07T10:26:32;35.03;;;21.65;;
11414;SDS011;5763;42.714;23.244;2022-12-07T10:29:01;30.95;;;21.00;;
11414;SDS011;5763;42.714;23.244;2022-12-07T10:31:39;30.92;;;21.35;;
11414;SDS011;5763;42.714;23.244;2022-12-07T10:34:14;33.72;;;21.63;;
11414;SDS011;5763;42.714;23.244;2022-12-07T10:36:49;35.38;;;22.65;;
11414;SDS011;5763;42.714;23.244;2022-12-07T10:39:17;31.10;;;21.98;;
11414;SDS011;5763;42.714;23.244;2022-12-07T10:41:54;34.35;;;23.50;;
11414;SDS011;5763;42.714;23.244;2022-12-07T10:44:22;28.83;;;21.38;;
11414;SDS011;5763;42.714;23.244;2022-12-07T10:50:05;27.65;;;19.27;;
11414;SDS011;5763;42.714;23.244;2022-12-07T10:55:44;26.88;;;17.98;;
11414;SDS011;5763;42.714;23.244;2022-12-07T10:58:31;28.17;;;18.60;;
11414;SDS011;5763;42.714;23.244;2022-12-07T11:01:13;28.13;;;17.08;;
11414;SDS011;5763;42.714;23.244;2022-12-07T11:03:55;20.55;;;16.45;;
11414;SDS011;5763;42.714;23.244;2022-12-07T11:06:43;22.30;;;15.73;;
11414;SDS011;5763;42.714;23.244;2022-12-07T11:09:26;25.63;;;16.85;;
11414;SDS011;5763;42.714;23.244;2022-12-07T11:12:15;20.60;;;15.15;;
11414;SDS011;5763;42.714;23.244;2022-12-07T11:14:53;22.40;;;15.82;;
11414;SDS011;5763;42.714;23.244;2022-12-07T11:17:29;22.45;;;15.57;;
11414;SDS011;5763;42.714;23.244;2022-12-07T11:20:04;25.67;;;16.15;;
11414;SDS011;5763;42.714;23.244;2022-12-07T11:22:50;22.77;;;16.90;;
11414;SDS011;5763;42.714;23.244;2022-12-07T11:25:27;28.52;;;17.48;;
11414;SDS011;5763;42.714;23.244;2022-12-07T11:28:03;25.20;;;16.58;;
11414;SDS011;5763;42.714;23.244;2022-12-07T11:30:42;21.83;;;16.63;;
11414;SDS011;5763;42.714;23.244;2022-12-07T11:33:19;23.58;;;17.85;;
11414;SDS011;5763;42.714;23.244;2022-12-07T11:35:56;25.38;;;17.52;;
11414;SDS011;5763;42.714;23.244;2022-12-07T11:38:31;29.88;;;19.33;;
11414;SDS011;5763;42.714;23.244;2022-12-07T11:41:08;29.15;;;20.52;;
11414;SDS011;5763;42.714;23.244;2022-12-07T11:46:35;30.38;;;21.35;;
11414;SDS011;5763;42.714;23.244;2022-12-07T11:49:13;26.60;;;20.60;;
11414;SDS011;5763;42.714;23.244;2022-12-07T11:51:45;28.15;;;19.90;;
11414;SDS011;5763;42.714;23.244;2022-12-07T11:54:17;26.48;;;20.73;;
11414;SDS011;5763;42.714;23.244;2022-12-07T11:56:50;29.67;;;21.42;;
11414;SDS011;5763;42.714;23.244;2022-12-07T11:59:20;24.48;;;20.52;;
11414;SDS011;5763;42.714;23.244;2022-12-07T12:01:54;27.92;;;20.50;;
11414;SDS011;5763;42.714;23.244;2022-12-07T12:04:30;26.92;;;19.63;;
11414;SDS011;5763;42.714;23.244;2022-12-07T12:07:05;26.13;;;19.98;;
11414;SDS011;5763;42.714;23.244;2022-12-07T12:09:35;25.70;;;18.65;;
11414;SDS011;5763;42.714;23.244;2022-12-07T12:12:17;28.52;;;18.80;;
11414;SDS011;5763;42.714;23.244;2022-12-07T12:14:59;26.35;;;19.48;;
11414;SDS011;5763;42.714;23.244;2022-12-07T12:20:40;24.08;;;18.42;;
11414;SDS011;5763;42.714;23.244;2022-12-07T12:23:10;26.67;;;18.75;;
11414;SDS011;5763;42.714;23.244;2022-12-07T12:25:42;23.35;;;16.88;;
11414;SDS011;5763;42.714;23.244;2022-12-07T12:28:20;23.23;;;16.38;;
11414;SDS011;5763;42.714;23.244;2022-12-07T12:31:07;26.98;;;15.73;;
11414;SDS011;5763;42.714;23.244;2022-12-07T12:33:38;19.52;;;16.52;;
11414;SDS011;5763;42.714;23.244;2022-12-07T12:36:20;22.42;;;16.27;;
11414;SDS011;5763;42.714;23.244;2022-12-07T12:38:51;19.88;;;14.68;;
11414;SDS011;5763;42.714;23.244;2022-12-07T12:44:40;19.67;;;15.13;;
11414;SDS011;5763;42.714;23.244;2022-12-07T12:50:18;19.58;;;14.65;;
11414;SDS011;5763;42.714;23.244;2022-12-07T12:52:50;21.77;;;14.20;;
11414;SDS011;5763;42.714;23.244;2022-12-07T12:58:40;16.73;;;13.07;;
11414;SDS011;5763;42.714;23.244;2022-12-07T13:04:21;15.50;;;12.82;;
11414;SDS011;5763;42.714;23.244;2022-12-07T13:06:51;19.77;;;13.95;;
11414;SDS011;5763;42.714;23.244;2022-12-07T13:09:20;19.85;;;13.18;;
11414;SDS011;5763;42.714;23.244;2022-12-07T13:11:55;20.40;;;14.55;;
11414;SDS011;5763;42.714;23.244;2022-12-07T13:14:41;16.13;;;12.48;;
11414;SDS011;5763;42.714;23.244;2022-12-07T13:23:12;17.45;;;12.80;;
11414;SDS011;5763;42.714;23.244;2022-12-07T13:25:43;17.42;;;12.98;;
11414;SDS011;5763;42.714;23.244;2022-12-07T13:28:15;15.55;;;12.80;;
11414;SDS011;5763;42.714;23.244;2022-12-07T13:30:50;17.88;;;12.15;;
11414;SDS011;5763;42.714;23.244;2022-12-07T13:33:35;15.98;;;10.85;;
11414;SDS011;5763;42.714;23.244;2022-12-07T13:36:03;12.82;;;10.82;;
11414;SDS011;5763;42.714;23.244;2022-12-07T13:38:30;18.23;;;11.57;;
11414;SDS011;5763;42.714;23.244;2022-12-07T13:41:04;18.58;;;11.55;;
11414;SDS011;5763;42.714;23.244;2022-12-07T13:43:45;15.35;;;11.38;;
11414;SDS011;5763;42.714;23.244;2022-12-07T13:46:15;20.33;;;12.35;;
11414;SDS011;5763;42.714;23.244;2022-12-07T13:48:46;20.30;;;11.95;;
11414;SDS011;5763;42.714;23.244;2022-12-07T13:51:16;17.98;;;12.57;;
11414;SDS011;5763;42.714;23.244;2022-12-07T13:53:49;19.30;;;12.52;;
11414;SDS011;5763;42.714;23.244;2022-12-07T13:56:17;16.48;;;12.48;;
11414;SDS011;5763;42.714;23.244;2022-12-07T13:58:44;17.88;;;12.05;;
11414;SDS011;5763;42.714;23.244;2022-12-07T14:01:12;22.55;;;12.30;;
11414;SDS011;5763;42.714;23.244;2022-12-07T14:03:42;18.35;;;11.90;;
11414;SDS011;5763;42.714;23.244;2022-12-07T14:06:19;18.60;;;11.02;;
11414;SDS011;5763;42.714;23.244;2022-12-07T14:09:08;14.52;;;10.63;;
11414;SDS011;5763;42.714;23.244;2022-12-07T14:11:44;16.45;;;11.90;;
11414;SDS011;5763;42.714;23.244;2022-12-07T14:14:13;18.38;;;11.65;;
11414;SDS011;5763;42.714;23.244;2022-12-07T14:16:54;19.35;;;12.52;;
11414;SDS011;5763;42.714;23.244;2022-12-07T14:19:51;20.33;;;13.10;;
11414;SDS011;5763;42.714;23.244;2022-12-07T14:22:23;20.00;;;14.10;;
11414;SDS011;5763;42.714;23.244;2022-12-07T14:25:09;17.50;;;12.48;;
11414;SDS011;5763;42.714;23.244;2022-12-07T14:27:53;19.20;;;11.73;;
11414;SDS011;5763;42.714;23.244;2022-12-07T14:30:24;20.75;;;12.50;;
11414;SDS011;5763;42.714;23.244;2022-12-07T14:32:56;19.08;;;11.95;;
11414;SDS011;5763;42.714;23.244;2022-12-07T14:35:28;16.00;;;11.60;;
11414;SDS011;5763;42.714;23.244;2022-12-07T14:37:57;16.15;;;11.65;;
11414;SDS011;5763;42.714;23.244;2022-12-07T14:40:26;19.42;;;12.27;;
11414;SDS011;5763;42.714;23.244;2022-12-07T14:42:56;16.33;;;12.57;;
11414;SDS011;5763;42.714;23.244;2022-12-07T14:45:28;18.80;;;12.25;;
11414;SDS011;5763;42.714;23.244;2022-12-07T14:47:56;23.85;;;12.57;;
11414;SDS011;5763;42.714;23.244;2022-12-07T14:50:24;22.70;;;13.07;;
11414;SDS011;5763;42.714;23.244;2022-12-07T14:52:55;16.30;;;11.93;;
11414;SDS011;5763;42.714;23.244;2022-12-07T14:55:27;19.70;;;13.32;;
11414;SDS011;5763;42.714;23.244;2022-12-07T14:57:58;20.88;;;13.00;;
11414;SDS011;5763;42.714;23.244;2022-12-07T15:00:26;25.92;;;14.50;;
11414;SDS011;5763;42.714;23.244;2022-12-07T15:02:54;20.80;;;14.52;;
11414;SDS011;5763;42.714;23.244;2022-12-07T15:05:21;23.80;;;14.35;;
11414;SDS011;5763;42.714;23.244;2022-12-07T15:07:49;21.83;;;15.02;;
11414;SDS011;5763;42.714;23.244;2022-12-07T15:10:18;30.40;;;16.20;;
11414;SDS011;5763;42.714;23.244;2022-12-07T15:12:46;22.38;;;14.63;;